createdAt,value
2016-08-15T00:00:52.339Z,0
2016-08-15T00:01:52.349Z,0
2016-08-15T00:02:52.327Z,0
2016-08-15T00:03:52.337Z,0
2016-08-15T00:04:52.333Z,0
2016-08-15T00:05:52.325Z,0
2016-08-15T00:06:52.326Z,0
2016-08-15T00:07:52.330Z,0
2016-08-15T00:08:52.336Z,0
2016-08-15T00:09:52.317Z,0
2016-08-15T00:10:53.020Z,0
2016-08-15T00:11:52.319Z,0
2016-08-15T00:12:52.812Z,0
2016-08-15T00:13:53.511Z,0
2016-08-15T00:15:07.875Z,0
2016-08-15T00:15:52.298Z,0
2016-08-15T00:16:52.859Z,0
2016-08-15T00:17:52.640Z,0
2016-08-15T00:18:52.290Z,0
2016-08-15T00:19:52.287Z,0
2016-08-15T00:20:52.283Z,0
2016-08-15T00:22:07.251Z,0
2016-08-15T00:23:22.779Z,0
2016-08-15T00:25:07.195Z,0
2016-08-15T00:26:07.189Z,0
2016-08-15T00:26:53.073Z,0
2016-08-15T00:27:52.272Z,0
2016-08-15T00:28:52.266Z,0
2016-08-15T00:29:52.965Z,0
2016-08-15T00:30:52.258Z,0
2016-08-15T00:31:52.257Z,0
2016-08-15T00:32:52.252Z,0
2016-08-15T00:33:52.250Z,0
2016-08-15T00:34:52.249Z,0
2016-08-15T00:35:52.950Z,0
2016-08-15T00:36:52.238Z,0
2016-08-15T00:37:52.236Z,0
2016-08-15T00:38:52.240Z,0
2016-08-15T00:39:52.228Z,0
2016-08-15T00:40:52.232Z,0
2016-08-15T00:41:52.226Z,0
2016-08-15T00:42:52.229Z,0
2016-08-15T00:43:52.221Z,0
2016-08-15T00:44:52.216Z,0
2016-08-15T00:45:52.211Z,0
2016-08-15T00:46:52.214Z,0
2016-08-15T00:47:52.200Z,0
2016-08-15T00:48:52.213Z,0
2016-08-15T00:49:52.201Z,0
2016-08-15T00:50:52.895Z,0
2016-08-15T00:52:54.207Z,0
2016-08-15T00:53:52.191Z,0
2016-08-15T00:54:52.822Z,0
2016-08-15T00:55:52.192Z,0
2016-08-15T00:56:52.174Z,0
2016-08-15T00:57:52.172Z,0
2016-08-15T00:58:52.166Z,0
2016-08-15T00:59:52.185Z,0
2016-08-15T01:00:54.826Z,0
2016-08-15T01:01:54.850Z,0
2016-08-15T01:02:54.243Z,0
2016-08-15T01:03:54.197Z,0
2016-08-15T01:04:52.147Z,0
2016-08-15T01:05:53.220Z,0
2016-08-15T01:06:52.148Z,0
2016-08-15T01:07:52.135Z,0
2016-08-15T01:08:52.141Z,0
2016-08-15T01:09:52.123Z,0
2016-08-15T01:10:52.121Z,0
2016-08-15T01:11:52.129Z,0
2016-08-15T01:12:52.139Z,0
2016-08-15T01:13:52.121Z,0
2016-08-15T01:14:52.117Z,0
2016-08-15T01:15:52.161Z,0
2016-08-15T01:16:52.114Z,0
2016-08-15T01:17:52.109Z,0
2016-08-15T01:18:52.102Z,0
2016-08-15T01:19:52.095Z,0
2016-08-15T01:20:52.106Z,0
2016-08-15T01:21:52.097Z,0
2016-08-15T01:22:52.091Z,0
2016-08-15T01:23:52.796Z,0
2016-08-15T01:24:52.082Z,0
2016-08-15T01:25:52.074Z,0
2016-08-15T01:26:52.075Z,0
2016-08-15T01:27:52.069Z,0
2016-08-15T01:28:52.060Z,0
2016-08-15T01:29:52.065Z,0
2016-08-15T01:30:53.457Z,0
2016-08-15T01:31:53.495Z,0
2016-08-15T01:32:52.750Z,0
2016-08-15T01:33:52.036Z,0
2016-08-15T01:34:52.042Z,0
2016-08-15T01:35:52.044Z,0
2016-08-15T01:36:52.735Z,0
2016-08-15T01:37:52.025Z,0
2016-08-15T01:38:52.019Z,0
2016-08-15T01:39:52.782Z,0
2016-08-15T01:41:06.988Z,0
2016-08-15T01:41:52.115Z,0
2016-08-15T01:43:06.918Z,0
2016-08-15T01:43:52.004Z,0
2016-08-15T01:44:52.005Z,0
2016-08-15T01:45:51.995Z,0
2016-08-15T01:46:51.988Z,0
2016-08-15T01:47:51.993Z,0
2016-08-15T01:48:51.999Z,0
2016-08-15T01:49:51.983Z,0
2016-08-15T01:50:51.974Z,0
2016-08-15T01:51:51.981Z,0
2016-08-15T01:52:51.962Z,0
2016-08-15T01:53:52.654Z,0
2016-08-15T01:54:51.961Z,0
2016-08-15T01:55:51.957Z,0
2016-08-15T01:56:51.950Z,0
2016-08-15T01:57:51.953Z,0
2016-08-15T01:58:51.941Z,0
2016-08-15T01:59:51.948Z,0
2016-08-15T02:00:51.944Z,0
2016-08-15T02:01:51.931Z,0
2016-08-15T02:02:51.927Z,0
2016-08-15T02:03:51.932Z,0
2016-08-15T02:04:51.918Z,0
2016-08-15T02:05:51.926Z,0
2016-08-15T02:06:51.934Z,0
2016-08-15T02:07:51.911Z,0
2016-08-15T02:08:51.910Z,0
2016-08-15T02:09:54.737Z,0
2016-08-15T02:10:53.520Z,0
2016-08-15T02:11:51.893Z,0
2016-08-15T02:12:53.365Z,0
2016-08-15T02:13:53.341Z,0
2016-08-15T02:14:52.367Z,0
2016-08-15T02:15:51.876Z,0
2016-08-15T02:16:51.877Z,0
2016-08-15T02:17:51.863Z,0
2016-08-15T02:18:53.383Z,0
2016-08-15T02:19:54.050Z,0
2016-08-15T02:20:54.082Z,0
2016-08-15T02:21:52.598Z,0
2016-08-15T02:22:52.966Z,0
2016-08-15T02:23:52.321Z,0
2016-08-15T02:24:51.830Z,0
2016-08-15T02:25:51.935Z,0
2016-08-15T02:26:51.898Z,0
2016-08-15T02:27:51.827Z,0
2016-08-15T02:28:51.827Z,0
2016-08-15T02:29:51.815Z,0
2016-08-15T02:30:51.812Z,0
2016-08-15T02:31:51.819Z,0
2016-08-15T02:32:51.802Z,0
2016-08-15T02:33:51.807Z,0
2016-08-15T02:34:51.803Z,0
2016-08-15T02:35:51.796Z,0
2016-08-15T02:36:51.791Z,0
2016-08-15T02:37:51.795Z,0
2016-08-15T02:38:51.771Z,0
2016-08-15T02:39:51.781Z,0
2016-08-15T02:40:51.764Z,0
2016-08-15T02:41:51.755Z,0
2016-08-15T02:42:51.759Z,0
2016-08-15T02:43:51.759Z,0
2016-08-15T02:44:51.748Z,0
2016-08-15T02:45:51.746Z,0
2016-08-15T02:46:51.746Z,0
2016-08-15T02:47:51.740Z,0
2016-08-15T02:48:53.431Z,0
2016-08-15T02:51:07.047Z,0
2016-08-15T02:51:51.768Z,0
2016-08-15T02:53:06.783Z,0
2016-08-15T02:53:51.715Z,0
2016-08-15T02:54:51.809Z,0
2016-08-15T02:55:51.701Z,0
2016-08-15T02:56:51.697Z,0
2016-08-15T02:58:06.603Z,0
2016-08-15T02:58:52.389Z,0
2016-08-15T02:59:51.884Z,0
2016-08-15T03:00:51.679Z,0
2016-08-15T03:01:52.524Z,0
2016-08-15T03:02:51.669Z,4
2016-08-15T03:03:51.660Z,4
2016-08-15T03:04:51.659Z,0
2016-08-15T03:05:51.660Z,0
2016-08-15T03:06:51.650Z,4
2016-08-15T03:07:52.344Z,4
2016-08-15T03:08:51.645Z,0
2016-08-15T03:09:51.640Z,4
2016-08-15T03:10:51.634Z,8
2016-08-15T03:11:51.630Z,4
2016-08-15T03:12:51.621Z,4
2016-08-15T03:13:51.623Z,8
2016-08-15T03:14:51.629Z,8
2016-08-15T03:15:51.710Z,8
2016-08-15T03:16:51.610Z,12
2016-08-15T03:17:51.608Z,12
2016-08-15T03:18:51.594Z,16
2016-08-15T03:19:51.591Z,16
2016-08-15T03:20:51.583Z,20
2016-08-15T03:21:51.580Z,20
2016-08-15T03:22:51.577Z,24
2016-08-15T03:23:51.575Z,28
2016-08-15T03:24:51.569Z,32
2016-08-15T03:25:51.567Z,36
2016-08-15T03:26:51.553Z,44
2016-08-15T03:27:53.590Z,52
2016-08-15T03:28:54.793Z,60
2016-08-15T03:29:52.247Z,68
2016-08-15T03:30:52.240Z,76
2016-08-15T03:31:51.687Z,84
2016-08-15T03:32:51.926Z,96
2016-08-15T03:33:51.527Z,112
2016-08-15T03:34:51.816Z,124
2016-08-15T03:35:51.516Z,140
2016-08-15T03:36:51.887Z,160
2016-08-15T03:37:53.038Z,176
2016-08-15T03:38:53.881Z,196
2016-08-15T03:39:53.023Z,216
2016-08-15T03:40:51.496Z,244
2016-08-15T03:41:51.669Z,268
2016-08-15T03:42:51.479Z,292
2016-08-15T03:43:51.479Z,320
2016-08-15T03:44:51.472Z,352
2016-08-15T03:45:51.472Z,380
2016-08-15T03:46:51.462Z,420
2016-08-15T03:47:51.461Z,452
2016-08-15T03:48:51.449Z,492
2016-08-15T03:49:51.449Z,528
2016-08-15T03:50:51.438Z,572
2016-08-15T03:51:51.439Z,624
2016-08-15T03:52:51.431Z,672
2016-08-15T03:53:51.422Z,728
2016-08-15T03:54:51.424Z,784
2016-08-15T03:55:51.424Z,836
2016-08-15T03:56:51.415Z,896
2016-08-15T03:57:51.423Z,956
2016-08-15T03:58:51.419Z,1020
2016-08-15T03:59:51.397Z,1088
2016-08-15T04:00:51.395Z,1156
2016-08-15T04:01:51.387Z,1228
2016-08-15T04:02:51.395Z,1320
2016-08-15T04:03:51.398Z,1416
2016-08-15T04:04:51.378Z,1520
2016-08-15T04:05:51.369Z,1612
2016-08-15T04:06:52.459Z,1704
2016-08-15T04:08:06.773Z,1820
2016-08-15T04:08:52.010Z,1892
2016-08-15T04:09:52.250Z,1992
2016-08-15T04:10:52.042Z,2096
2016-08-15T04:11:51.844Z,2192
2016-08-15T04:12:51.734Z,2268
2016-08-15T04:13:51.329Z,2324
2016-08-15T04:14:51.318Z,2380
2016-08-15T04:16:52.112Z,2556
2016-08-15T04:17:52.264Z,2672
2016-08-15T04:18:51.667Z,2964
2016-08-15T04:19:51.400Z,3964
2016-08-15T04:20:51.954Z,5000
2016-08-15T04:21:51.289Z,5508
2016-08-15T04:22:51.289Z,5784
2016-08-15T04:23:51.286Z,6216
2016-08-15T04:24:51.277Z,6472
2016-08-15T04:25:51.293Z,6520
2016-08-15T04:26:51.271Z,6720
2016-08-15T04:27:51.265Z,7120
2016-08-15T04:28:51.258Z,7448
2016-08-15T04:29:51.265Z,7560
2016-08-15T04:30:51.256Z,7600
2016-08-15T04:31:51.256Z,7812
2016-08-15T04:32:51.257Z,8068
2016-08-15T04:33:51.238Z,7432
2016-08-15T04:34:51.239Z,7204
2016-08-15T04:35:51.244Z,9064
2016-08-15T04:36:51.237Z,8884
2016-08-15T04:37:51.231Z,9532
2016-08-15T04:38:51.228Z,10500
2016-08-15T04:39:51.228Z,6688
2016-08-15T04:40:51.219Z,4548
2016-08-15T04:41:51.231Z,4812
2016-08-15T04:42:51.218Z,6832
2016-08-15T04:43:51.211Z,11688
2016-08-15T04:44:51.217Z,6324
2016-08-15T04:45:52.319Z,5496
2016-08-15T04:46:53.560Z,13056
2016-08-15T04:47:51.468Z,13376
2016-08-15T04:48:52.772Z,13344
2016-08-15T04:49:52.513Z,14016
2016-08-15T04:50:51.206Z,15040
2016-08-15T04:51:51.209Z,14816
2016-08-15T04:52:51.199Z,13984
2016-08-15T04:53:51.195Z,14144
2016-08-15T04:55:51.865Z,14656
2016-08-15T04:56:53.493Z,12448
2016-08-15T04:57:53.243Z,9212
2016-08-15T04:58:51.894Z,12960
2016-08-15T04:59:51.201Z,14208
2016-08-15T05:00:51.205Z,13412
2016-08-15T05:01:51.200Z,10828
2016-08-15T05:02:51.207Z,10116
2016-08-15T05:03:51.203Z,12040
2016-08-15T05:04:51.210Z,14016
2016-08-15T05:05:51.903Z,13416
2016-08-15T05:06:51.210Z,12504
2016-08-15T05:07:51.220Z,13000
2016-08-15T05:08:51.214Z,10180
2016-08-15T05:09:51.209Z,12312
2016-08-15T05:10:51.225Z,12072
2016-08-15T05:11:51.226Z,9156
2016-08-15T05:12:51.227Z,7328
2016-08-15T05:13:51.230Z,10604
2016-08-15T05:14:51.238Z,12200
2016-08-15T05:15:51.251Z,11028
2016-08-15T05:16:51.944Z,13004
2016-08-15T05:17:51.245Z,8372
2016-08-15T05:18:51.245Z,10568
2016-08-15T05:19:51.252Z,14668
2016-08-15T05:20:51.260Z,11896
2016-08-15T05:21:51.252Z,17408
2016-08-15T05:22:51.261Z,19200
2016-08-15T05:23:51.279Z,19584
2016-08-15T05:25:06.595Z,17440
2016-08-15T05:26:06.946Z,17024
2016-08-15T05:26:51.983Z,17696
2016-08-15T05:27:52.288Z,19232
2016-08-15T05:29:06.205Z,11460
2016-08-15T05:29:51.602Z,10484
2016-08-15T05:30:51.951Z,10036
2016-08-15T05:31:51.613Z,9364
2016-08-15T05:32:51.315Z,8968
2016-08-15T05:34:52.072Z,10324
2016-08-15T05:36:06.995Z,11676
2016-08-15T05:36:51.390Z,12112
2016-08-15T05:37:51.338Z,12476
2016-08-15T05:38:51.944Z,12612
2016-08-15T05:39:51.360Z,12764
2016-08-15T05:40:51.355Z,13060
2016-08-15T05:41:51.361Z,13508
2016-08-15T05:42:51.366Z,14204
2016-08-15T05:43:51.377Z,14772
2016-08-15T05:44:51.378Z,15200
2016-08-15T05:45:51.379Z,16256
2016-08-15T05:46:51.396Z,26624
2016-08-15T05:47:51.397Z,15552
2016-08-15T05:48:51.407Z,15584
2016-08-15T05:49:51.404Z,16576
2016-08-15T05:50:51.398Z,14760
2016-08-15T05:51:51.409Z,14644
2016-08-15T05:52:51.412Z,14676
2016-08-15T05:53:51.431Z,14836
2016-08-15T05:54:51.425Z,14880
2016-08-15T05:55:51.427Z,15140
2016-08-15T05:57:51.447Z,15872
2016-08-15T06:01:51.463Z,14500
2016-08-15T06:02:51.466Z,14944
2016-08-15T06:05:54.650Z,14608
2016-08-15T06:06:56.029Z,14016
2016-08-15T06:07:51.496Z,36096
2016-08-15T06:08:52.298Z,35936
2016-08-15T06:09:58.445Z,35552
2016-08-15T06:10:51.485Z,34880
2016-08-15T06:11:51.498Z,34048
2016-08-15T06:12:53.919Z,33280
2016-08-15T06:14:53.754Z,33568
2016-08-15T06:15:51.570Z,34624
2016-08-15T06:16:53.522Z,33984
2016-08-15T06:17:52.489Z,34400
2016-08-15T06:18:51.531Z,33120
2016-08-15T06:19:51.542Z,32992
2016-08-15T06:20:51.547Z,33984
2016-08-15T06:21:51.556Z,33344
2016-08-15T06:22:51.566Z,34144
2016-08-15T06:23:51.568Z,33376
2016-08-15T06:24:52.265Z,32960
2016-08-15T06:25:51.583Z,33472
2016-08-15T06:26:51.591Z,33792
2016-08-15T06:27:54.509Z,34912
2016-08-15T06:28:51.615Z,34048
2016-08-15T06:29:51.623Z,33664
2016-08-15T06:30:51.645Z,33152
2016-08-15T06:31:51.645Z,34112
2016-08-15T06:32:51.650Z,35072
2016-08-15T06:33:51.661Z,34688
2016-08-15T06:34:51.673Z,33792
2016-08-15T06:35:52.380Z,33536
2016-08-15T06:36:51.693Z,33312
2016-08-15T06:37:51.710Z,34624
2016-08-15T06:38:51.716Z,36128
2016-08-15T06:39:51.722Z,35136
2016-08-15T06:40:51.743Z,37088
2016-08-15T06:41:51.754Z,38016
2016-08-15T06:43:52.068Z,33376
2016-08-15T06:44:52.726Z,40736
2016-08-15T06:46:52.006Z,8876
2016-08-15T06:47:51.825Z,38912
2016-08-15T06:48:52.389Z,14900
2016-08-15T06:49:51.846Z,9796
2016-08-15T06:50:51.866Z,19712
2016-08-15T06:51:51.876Z,41152
2016-08-15T06:52:53.032Z,40768
2016-08-15T06:53:52.741Z,41312
2016-08-15T06:54:52.703Z,41856
2016-08-15T06:55:52.258Z,43808
2016-08-15T06:56:51.997Z,45120
2016-08-15T06:57:51.928Z,44480
2016-08-15T06:58:51.940Z,45568
2016-08-15T06:59:51.956Z,44928
2016-08-15T07:00:51.972Z,47744
2016-08-15T07:01:51.981Z,47808
2016-08-15T07:02:51.994Z,34048
2016-08-15T07:03:52.000Z,49600
2016-08-15T07:04:52.021Z,49920
2016-08-15T07:05:52.027Z,50720
2016-08-15T07:06:52.051Z,48704
2016-08-15T07:07:52.045Z,47232
2016-08-15T07:08:52.065Z,48352
2016-08-15T07:09:52.078Z,50176
2016-08-15T07:10:52.101Z,51456
2016-08-15T07:11:52.104Z,51072
2016-08-15T07:12:52.113Z,52960
2016-08-15T07:13:52.126Z,52096
2016-08-15T07:14:52.149Z,52256
2016-08-15T07:15:52.151Z,53664
2016-08-15T07:16:52.856Z,56512
2016-08-15T07:17:52.891Z,58528
2016-08-15T07:18:52.196Z,56640
2016-08-15T07:19:52.204Z,54624
2016-08-15T07:20:52.234Z,57696
2016-08-15T07:21:53.251Z,57792
2016-08-15T07:22:52.406Z,57152
2016-08-15T07:23:55.354Z,15280
2016-08-15T07:24:52.820Z,55872
2016-08-15T07:25:53.503Z,56832
2016-08-15T07:26:52.716Z,56192
2016-08-15T07:27:52.325Z,55968
2016-08-15T07:28:52.341Z,54048
2016-08-15T07:29:52.352Z,53408
2016-08-15T07:30:52.365Z,56832
2016-08-15T07:32:54.664Z,56512
2016-08-15T07:33:52.630Z,60096
2016-08-15T07:34:53.630Z,56608
2016-08-15T07:35:53.194Z,59808
2016-08-15T07:36:52.464Z,20704
2016-08-15T07:37:52.504Z,18592
2016-08-15T07:38:52.522Z,18816
2016-08-15T07:39:52.510Z,67072
2016-08-15T07:40:52.520Z,65312
2016-08-15T07:41:52.529Z,38464
2016-08-15T07:42:52.551Z,15820
2016-08-15T07:43:52.574Z,18272
2016-08-15T07:44:53.284Z,17632
2016-08-15T07:45:52.599Z,29408
2016-08-15T07:46:52.610Z,52864
2016-08-15T07:47:52.622Z,17216
2016-08-15T07:48:52.645Z,71968
2016-08-15T07:49:52.662Z,85728
2016-08-15T07:50:53.387Z,87648
2016-08-15T07:51:52.711Z,86048
2016-08-15T07:52:52.692Z,61152
2016-08-15T07:53:52.718Z,16208
2016-08-15T07:54:52.717Z,86144
2016-08-15T07:55:52.723Z,59904
2016-08-15T07:56:52.765Z,13132
2016-08-15T07:57:52.765Z,13672
2016-08-15T07:58:52.771Z,88960
2016-08-15T07:59:52.785Z,86432
2016-08-15T08:00:52.799Z,19104
2016-08-15T08:01:53.424Z,51104
2016-08-15T08:02:53.626Z,74112
2016-08-15T08:05:07.878Z,15568
2016-08-15T08:05:53.825Z,20800
2016-08-15T08:06:53.576Z,18432
2016-08-15T08:07:52.899Z,13596
2016-08-15T08:08:52.902Z,13352
2016-08-15T08:09:52.915Z,16704
2016-08-15T08:10:53.283Z,35296
2016-08-15T08:11:53.544Z,18112
2016-08-15T08:13:54.160Z,15096
2016-08-15T08:14:53.028Z,18368
2016-08-15T08:15:53.097Z,58880
2016-08-15T08:16:53.003Z,66368
2016-08-15T08:17:53.003Z,18592
2016-08-15T08:18:53.030Z,16960
2016-08-15T08:19:53.024Z,16608
2016-08-15T08:20:53.038Z,17408
2016-08-15T08:21:53.045Z,17376
2016-08-15T08:22:53.060Z,18176
2016-08-15T08:23:53.077Z,18528
2016-08-15T08:24:53.075Z,61216
2016-08-15T08:25:53.077Z,35808
2016-08-15T08:26:53.794Z,33760
2016-08-15T08:27:53.103Z,58944
2016-08-15T08:28:53.136Z,57984
2016-08-15T08:29:53.189Z,58048
2016-08-15T08:30:53.135Z,22912
2016-08-15T08:31:53.841Z,56512
2016-08-15T08:32:53.158Z,16080
2016-08-15T08:33:53.166Z,16800
2016-08-15T08:34:53.179Z,61984
2016-08-15T08:35:53.182Z,20032
2016-08-15T08:36:53.893Z,59776
2016-08-15T08:37:53.205Z,18592
2016-08-15T08:38:53.220Z,59936
2016-08-15T08:39:53.225Z,46336
2016-08-15T08:40:56.116Z,16832
2016-08-15T08:41:55.917Z,14192
2016-08-15T08:42:54.094Z,13724
2016-08-15T08:43:55.403Z,12352
2016-08-15T08:44:53.277Z,11444
2016-08-15T08:45:53.979Z,11404
2016-08-15T08:46:53.292Z,10604
2016-08-15T08:47:53.307Z,10248
2016-08-15T08:48:53.362Z,9996
2016-08-15T08:49:55.072Z,9824
2016-08-15T08:50:55.192Z,9672
2016-08-15T08:51:53.789Z,9772
2016-08-15T08:52:55.377Z,10088
2016-08-15T08:53:53.350Z,10488
2016-08-15T08:54:53.359Z,10608
2016-08-15T08:55:54.135Z,10308
2016-08-15T08:56:53.367Z,9868
2016-08-15T08:57:53.408Z,9684
2016-08-15T08:58:53.382Z,9388
2016-08-15T08:59:53.397Z,9200
2016-08-15T09:00:53.403Z,9336
2016-08-15T09:01:53.411Z,10180
2016-08-15T09:02:53.414Z,11596
2016-08-15T09:03:53.427Z,11520
2016-08-15T09:04:53.417Z,10488
2016-08-15T09:05:53.434Z,9848
2016-08-15T09:06:53.428Z,9688
2016-08-15T09:07:53.442Z,10072
2016-08-15T09:08:53.441Z,9844
2016-08-15T09:09:53.471Z,9484
2016-08-15T09:10:53.443Z,9588
2016-08-15T09:11:53.452Z,10184
2016-08-15T09:12:53.463Z,10512
2016-08-15T09:13:53.469Z,10984
2016-08-15T09:14:53.478Z,11340
2016-08-15T09:15:53.571Z,12400
2016-08-15T09:16:53.478Z,13976
2016-08-15T09:17:53.481Z,15292
2016-08-15T09:18:53.482Z,15840
2016-08-15T09:19:54.799Z,16184
2016-08-15T09:21:08.410Z,17664
2016-08-15T09:21:53.493Z,19296
2016-08-15T09:22:54.753Z,20512
2016-08-15T09:24:07.475Z,20320
2016-08-15T09:24:53.516Z,20544
2016-08-15T09:25:54.012Z,20704
2016-08-15T09:26:53.516Z,20160
2016-08-15T09:27:53.517Z,20544
2016-08-15T09:28:53.978Z,20544
2016-08-15T09:30:53.584Z,20928
2016-08-15T09:31:53.541Z,21216
2016-08-15T09:32:53.784Z,21056
2016-08-15T09:33:54.145Z,21024
2016-08-15T09:34:53.546Z,20928
2016-08-15T09:35:53.549Z,20608
2016-08-15T09:36:53.555Z,19584
2016-08-15T09:38:53.557Z,18144
2016-08-15T09:39:53.565Z,17504
2016-08-15T09:40:53.575Z,17152
2016-08-15T09:41:53.574Z,16128
2016-08-15T09:42:53.582Z,14716
2016-08-15T09:43:54.292Z,14084
2016-08-15T09:44:53.589Z,13208
2016-08-15T09:46:07.026Z,13520
2016-08-15T09:46:53.607Z,13232
2016-08-15T09:47:53.602Z,13072
2016-08-15T09:48:53.620Z,13088
2016-08-15T09:49:53.632Z,13340
2016-08-15T09:50:53.623Z,13896
2016-08-15T09:51:53.630Z,14712
2016-08-15T09:52:53.638Z,16576
2016-08-15T09:53:53.639Z,17760
2016-08-15T09:54:53.658Z,18816
2016-08-15T09:55:53.649Z,19264
2016-08-15T09:56:53.669Z,19552
2016-08-15T09:57:53.649Z,19648
2016-08-15T09:59:54.963Z,20128
2016-08-15T10:01:07.592Z,20576
2016-08-15T10:01:54.988Z,20896
2016-08-15T10:02:53.676Z,20544
2016-08-15T10:03:53.682Z,19968
2016-08-15T10:04:53.684Z,18496
2016-08-15T10:05:53.705Z,17344
2016-08-15T10:06:53.701Z,16576
2016-08-15T10:07:55.638Z,15564
2016-08-15T10:08:56.531Z,14648
2016-08-15T10:09:55.816Z,13740
2016-08-15T10:10:55.043Z,13180
2016-08-15T10:11:53.874Z,13696
2016-08-15T10:12:53.727Z,15104
2016-08-15T10:13:54.427Z,16260
2016-08-15T10:14:53.736Z,17696
2016-08-15T10:15:53.742Z,18816
2016-08-15T10:16:53.747Z,18848
2016-08-15T10:17:53.751Z,18656
2016-08-15T10:19:54.468Z,18272
2016-08-15T10:20:53.761Z,18048
2016-08-15T10:21:53.769Z,17856
2016-08-15T10:22:53.777Z,17536
2016-08-15T10:23:53.794Z,17120
2016-08-15T10:24:53.782Z,16228
2016-08-15T10:25:53.792Z,15648
2016-08-15T10:26:53.812Z,14996
2016-08-15T10:27:53.802Z,14560
2016-08-15T10:28:53.796Z,14340
2016-08-15T10:29:53.806Z,14760
2016-08-15T10:30:53.808Z,14728
2016-08-15T10:31:53.822Z,14924
2016-08-15T10:32:53.814Z,14840
2016-08-15T10:33:53.830Z,15052
2016-08-15T10:34:53.840Z,14588
2016-08-15T10:35:54.542Z,14648
2016-08-15T10:36:53.844Z,14904
2016-08-15T10:38:08.764Z,15380
2016-08-15T10:39:09.116Z,16072
2016-08-15T10:39:54.608Z,17440
2016-08-15T10:40:54.456Z,18368
2016-08-15T10:41:53.866Z,18912
2016-08-15T10:42:53.864Z,19264
2016-08-15T10:43:53.890Z,19680
2016-08-15T10:44:53.884Z,19424
2016-08-15T10:45:53.881Z,19744
2016-08-15T10:47:08.801Z,20352
2016-08-15T10:47:55.243Z,20640
2016-08-15T10:48:54.548Z,21376
2016-08-15T10:50:09.024Z,22336
2016-08-15T10:50:54.610Z,22720
2016-08-15T10:51:54.966Z,23296
2016-08-15T10:52:54.909Z,24000
2016-08-15T10:53:54.225Z,24480
2016-08-15T10:54:53.927Z,24672
2016-08-15T10:55:53.941Z,24736
2016-08-15T10:56:53.935Z,24576
2016-08-15T10:57:53.939Z,24672
2016-08-15T10:58:53.935Z,25056
2016-08-15T10:59:53.952Z,25120
2016-08-15T11:00:53.955Z,24448
2016-08-15T11:01:53.968Z,23232
2016-08-15T11:02:53.981Z,22144
2016-08-15T11:03:53.974Z,21344
2016-08-15T11:04:53.980Z,20512
2016-08-15T11:05:53.973Z,19744
2016-08-15T11:06:53.984Z,19136
2016-08-15T11:07:53.993Z,18656
2016-08-15T11:08:54.001Z,18432
2016-08-15T11:09:54.003Z,18272
2016-08-15T11:10:54.011Z,18560
2016-08-15T11:11:54.022Z,18720
2016-08-15T11:12:54.024Z,18976
2016-08-15T11:13:54.028Z,19040
2016-08-15T11:14:54.028Z,18976
2016-08-15T11:15:54.103Z,18688
2016-08-15T11:16:56.509Z,18144
2016-08-15T11:17:54.049Z,17600
2016-08-15T11:18:55.284Z,17632
2016-08-15T11:19:54.921Z,17536
2016-08-15T11:20:54.062Z,17440
2016-08-15T11:21:54.074Z,17408
2016-08-15T11:22:54.074Z,17408
2016-08-15T11:23:54.098Z,17568
2016-08-15T11:24:54.090Z,17632
2016-08-15T11:25:56.836Z,17888
2016-08-15T11:27:57.112Z,18144
2016-08-15T11:28:54.909Z,19008
2016-08-15T11:29:54.116Z,19328
2016-08-15T11:30:54.609Z,19264
2016-08-15T11:31:54.532Z,18656
2016-08-15T11:32:54.138Z,18528
2016-08-15T11:33:54.132Z,18784
2016-08-15T11:34:54.146Z,19136
2016-08-15T11:35:54.145Z,18944
2016-08-15T11:36:54.155Z,18432
2016-08-15T11:37:54.158Z,18144
2016-08-15T11:38:54.163Z,18496
2016-08-15T11:39:59.118Z,18848
2016-08-15T11:40:54.175Z,19008
2016-08-15T11:41:54.181Z,18528
2016-08-15T11:42:54.183Z,17568
2016-08-15T11:43:54.186Z,16928
2016-08-15T11:44:54.188Z,18208
2016-08-15T11:45:54.204Z,20768
2016-08-15T11:46:54.212Z,22496
2016-08-15T11:47:54.207Z,22112
2016-08-15T11:48:54.216Z,20736
2016-08-15T11:49:54.214Z,19840
2016-08-15T11:50:54.221Z,18976
2016-08-15T11:51:54.927Z,18080
2016-08-15T11:52:54.233Z,17632
2016-08-15T11:53:54.937Z,17344
2016-08-15T11:54:54.240Z,17280
2016-08-15T11:56:24.082Z,18240
2016-08-15T11:56:54.450Z,18752
2016-08-15T11:58:55.171Z,19872
2016-08-15T11:59:54.478Z,19776
2016-08-15T12:00:54.274Z,19552
2016-08-15T12:01:54.288Z,19040
2016-08-15T12:02:54.316Z,19008
2016-08-15T12:03:54.302Z,19264
2016-08-15T12:05:24.132Z,20480
2016-08-15T12:05:55.155Z,21120
2016-08-15T12:08:09.226Z,22624
2016-08-15T12:08:55.351Z,22080
2016-08-15T12:09:54.331Z,21728
2016-08-15T12:10:54.525Z,21280
2016-08-15T12:11:54.325Z,21472
2016-08-15T12:12:54.343Z,22912
2016-08-15T12:13:54.344Z,24864
2016-08-15T12:14:54.349Z,25536
2016-08-15T12:15:54.452Z,25920
2016-08-15T12:16:54.363Z,26272
2016-08-15T12:17:54.371Z,25344
2016-08-15T12:18:54.381Z,22624
2016-08-15T12:19:54.377Z,20384
2016-08-15T12:20:54.381Z,18976
2016-08-15T12:21:54.387Z,18208
2016-08-15T12:22:54.396Z,18016
2016-08-15T12:23:54.418Z,18272
2016-08-15T12:24:54.419Z,18272
2016-08-15T12:25:54.418Z,18528
2016-08-15T12:26:54.415Z,18784
2016-08-15T12:27:54.429Z,19136
2016-08-15T12:28:54.434Z,19712
2016-08-15T12:29:54.435Z,20096
2016-08-15T12:30:54.438Z,20832
2016-08-15T12:31:54.445Z,21344
2016-08-15T12:32:54.459Z,21152
2016-08-15T12:33:54.458Z,19040
2016-08-15T12:34:57.204Z,18080
2016-08-15T12:35:57.942Z,18880
2016-08-15T12:36:56.108Z,20448
2016-08-15T12:37:56.254Z,22368
2016-08-15T12:38:55.161Z,23872
2016-08-15T12:39:54.503Z,23520
2016-08-15T12:40:54.503Z,23136
2016-08-15T12:41:54.510Z,22592
2016-08-15T12:42:54.512Z,22400
2016-08-15T12:43:56.040Z,22848
2016-08-15T12:44:56.981Z,22880
2016-08-15T12:46:56.062Z,23616
2016-08-15T12:47:55.274Z,23488
2016-08-15T12:48:54.545Z,23840
2016-08-15T12:49:54.918Z,23264
2016-08-15T12:50:54.883Z,22368
2016-08-15T12:51:54.566Z,21888
2016-08-15T12:52:54.580Z,21664
2016-08-15T12:53:54.578Z,21792
2016-08-15T12:54:54.586Z,22368
2016-08-15T12:55:54.589Z,23520
2016-08-15T12:56:54.591Z,24928
2016-08-15T12:57:54.598Z,26208
2016-08-15T12:58:54.608Z,27008
2016-08-15T12:59:54.604Z,27040
2016-08-15T13:00:54.618Z,26336
2016-08-15T13:01:54.621Z,25344
2016-08-15T13:02:54.626Z,24064
2016-08-15T13:03:54.636Z,22976
2016-08-15T13:05:08.075Z,22336
2016-08-15T13:05:54.642Z,21952
2016-08-15T13:06:54.648Z,21376
2016-08-15T13:07:54.647Z,20832
2016-08-15T13:08:54.661Z,20288
2016-08-15T13:09:54.672Z,19616
2016-08-15T13:10:54.674Z,18976
2016-08-15T13:11:54.688Z,18464
2016-08-15T13:12:54.685Z,17952
2016-08-15T13:14:11.212Z,17664
2016-08-15T13:14:55.851Z,17728
2016-08-15T13:15:56.003Z,18272
2016-08-15T13:17:09.777Z,18304
2016-08-15T13:17:56.022Z,18272
2016-08-15T13:18:54.766Z,18624
2016-08-15T13:19:55.174Z,19488
2016-08-15T13:20:54.772Z,20480
2016-08-15T13:21:54.730Z,20608
2016-08-15T13:22:56.546Z,19968
2016-08-15T13:23:55.239Z,19232
2016-08-15T13:24:55.498Z,19328
2016-08-15T13:25:56.448Z,19424
2016-08-15T13:26:54.751Z,19392
2016-08-15T13:27:55.812Z,18880
2016-08-15T13:28:54.761Z,18016
2016-08-15T13:29:54.779Z,16448
2016-08-15T13:30:54.773Z,14952
2016-08-15T13:31:54.786Z,13960
2016-08-15T13:32:54.786Z,13476
2016-08-15T13:33:54.797Z,13428
2016-08-15T13:34:54.796Z,13700
2016-08-15T13:35:54.809Z,14168
2016-08-15T13:36:54.799Z,14760
2016-08-15T13:37:54.814Z,15728
2016-08-15T13:38:54.817Z,17248
2016-08-15T13:39:54.825Z,18208
2016-08-15T13:40:54.830Z,18112
2016-08-15T13:41:54.860Z,18080
2016-08-15T13:42:54.851Z,18272
2016-08-15T13:43:54.848Z,18464
2016-08-15T13:44:54.846Z,18400
2016-08-15T13:45:54.854Z,18144
2016-08-15T13:46:54.872Z,17920
2016-08-15T13:47:54.854Z,17504
2016-08-15T13:48:54.862Z,17216
2016-08-15T13:49:54.866Z,16564